Time;durP1;ratioP1;P1;durP2;ratioP2;P2;SDS_P1;SDS_P2;PMS_P1;PMS_P2;Temp;Humidity;BMP_temperature;BMP_pressure;BME280_temperature;BME280_humidity;BME280_pressure;Samples;Min_cycle;Max_cycle;Signal;HPM_P1;HPM_P2
2023/08/09 00:00:04;;;;;;;;;;;;;;;20.91;59.02;99686.38;347821;28;5121;-79
2023/08/09 00:00:16;;;;;;;;;;;;;;;20.90;59.23;99682.00;350470;28;865;-78
2023/08/09 00:00:28;;;;;;;;;;;;;;;20.89;59.24;99688.31;348981;28;1427;-78
2023/08/09 00:00:38;;;;;;;;;;;;;;;20.87;59.45;99684.94;349225;28;1326;-77
2023/08/09 00:00:48;;;;;;;;;;;;;;;20.88;59.71;99686.63;351442;28;1291;-77
2023/08/09 00:00:59;;;;;;;;;;;;;;;20.89;59.20;99682.97;351877;28;911;-77
2023/08/09 00:01:09;;;;;;;;;;;;;;;20.89;59.10;99682.97;351602;28;1195;-77
2023/08/09 00:01:19;;;;;;;;;;;;;;;20.90;59.49;99683.81;351802;28;840;-77
2023/08/09 00:01:29;;;;;;;;;;;;;;;20.90;59.43;99683.81;350677;28;875;-77
2023/08/09 00:01:40;;;;;;;;;;;;;;;20.90;59.28;99687.34;350586;28;864;-77
2023/08/09 00:01:50;;;;;;;;;;;;;;;20.92;59.19;99685.41;348919;28;1356;-77
2023/08/09 00:02:00;;;;;;;;;;;;;;;20.93;59.26;99684.44;349162;28;868;-77
2023/08/09 00:02:11;;;;;;;;;;;;;;;20.95;59.17;99686.13;349124;28;927;-77
2023/08/09 00:02:21;;;;;;;;;;;;;;;20.93;59.50;99684.44;346339;28;801;-77
2023/08/09 00:02:31;;;;;;;;;;;;;;;20.93;59.22;99684.44;347643;28;1317;-77
2023/08/09 00:02:41;;;;;;;;;;;;;;;20.94;59.47;99687.94;347680;28;1050;-77
2023/08/09 00:02:52;;;;;;;;;;;;;;;20.95;59.29;99683.44;348821;28;1236;-77
2023/08/09 00:03:02;;;;;;;;;;;;;;;20.93;59.42;99683.56;350072;28;1240;-77
2023/08/09 00:03:12;;;;;;;;;;;;;;;20.90;59.24;99689.16;347529;28;1297;-77
2023/08/09 00:03:23;;;;;;;;;;;;;;;20.90;59.28;99684.69;347624;28;1182;-77
2023/08/09 00:03:33;;;;;;;;;;;;;;;20.91;59.23;99682.84;347653;28;824;-77
2023/08/09 00:03:43;;;;;;;;;;;;;;;20.91;59.64;99686.38;347788;28;840;-77
2023/08/09 00:03:54;;;;;;;;;;;;;;;20.91;59.59;99686.38;346424;28;868;-77
2023/08/09 00:04:04;;;;;;;;;;;;;;;20.92;59.52;99693.38;346178;28;1386;-79
2023/08/09 00:04:14;;;;;;;;;;;;;;;20.92;59.34;99688.06;349420;28;951;-79
2023/08/09 00:04:25;;;;;;;;;;;;;;;20.93;59.50;99695.06;348900;28;1157;-78
2023/08/09 00:04:35;;;;;;;;;;;;;;;20.94;59.70;99685.28;348859;28;1321;-78
2023/08/09 00:04:45;;;;;;;;;;;;;;;20.93;59.34;99689.75;349576;28;1250;-78
2023/08/09 00:04:55;;;;;;;;;;;;;;;20.94;59.47;99682.59;349113;28;980;-78
2023/08/09 00:05:06;;;;;;;;;;;;;;;20.95;59.63;99689.63;346289;28;1619;-78
2023/08/09 00:05:16;;;;;;;;;;;;;;;20.97;59.71;99686.84;346935;28;1126;-78
2023/08/09 00:05:26;;;;;;;;;;;;;;;20.98;59.32;99691.19;347551;28;1178;-78
2023/08/09 00:05:36;;;;;;;;;;;;;;;21.00;59.40;99690.09;343694;28;798;-78
2023/08/09 00:05:47;;;;;;;;;;;;;;;21.01;59.48;99685.59;344435;28;1225;-78
2023/08/09 00:05:57;;;;;;;;;;;;;;;21.02;59.16;99692.63;345185;28;1088;-78
2023/08/09 00:06:07;;;;;;;;;;;;;;;21.03;59.15;99691.66;346054;28;1437;-78
2023/08/09 00:06:17;;;;;;;;;;;;;;;21.02;59.43;99692.63;346862;28;811;-78
2023/08/09 00:06:27;;;;;;;;;;;;;;;21.02;59.16;99684.63;346404;28;1322;-78
2023/08/09 00:06:38;;;;;;;;;;;;;;;21.03;59.06;99686.31;346191;28;1307;-79
2023/08/09 00:06:48;;;;;;;;;;;;;;;21.03;59.43;99683.66;343486;28;1355;-79
2023/08/09 00:06:59;;;;;;;;;;;;;;;21.03;59.23;99684.50;344283;28;1456;-79
2023/08/09 00:07:09;;;;;;;;;;;;;;;21.05;59.70;99687.03;346298;28;943;-79
2023/08/09 00:07:19;;;;;;;;;;;;;;;21.04;59.34;99686.19;344757;28;1332;-78
2023/08/09 00:07:29;;;;;;;;;;;;;;;21.03;59.81;99689.00;345330;28;1728;-78
2023/08/09 00:07:39;;;;;;;;;;;;;;;21.01;59.73;99686.44;343644;28;1993;-78
2023/08/09 00:07:50;;;;;;;;;;;;;;;21.01;59.82;99685.59;341974;28;1325;-78
2023/08/09 00:08:00;;;;;;;;;;;;;;;21.00;59.45;99687.44;342847;28;1296;-78
2023/08/09 00:08:11;;;;;;;;;;;;;;;21.00;59.82;99689.25;344953;28;1347;-78
2023/08/09 00:08:21;;;;;;;;;;;;;;;21.00;59.78;99684.75;345137;28;848;-78
2023/08/09 00:08:31;;;;;;;;;;;;;;;21.00;59.84;99684.75;343455;28;1339;-78
2023/08/09 00:08:41;;;;;;;;;;;;;;;20.97;60.22;99687.69;342268;28;1389;-78
2023/08/09 00:08:52;;;;;;;;;;;;;;;20.95;60.19;99688.78;341008;29;1331;-78
2023/08/09 00:09:02;;;;;;;;;;;;;;;20.95;59.76;99691.44;338145;29;1869;-78
2023/08/09 00:09:12;;;;;;;;;;;;;;;20.96;60.35;99693.13;336035;29;2306;-78
2023/08/09 00:09:22;;;;;;;;;;;;;;;20.96;59.92;99690.47;332212;29;2443;-78
2023/08/09 00:09:33;;;;;;;;;;;;;;;20.96;60.45;99686.00;335119;29;3063;-78
2023/08/09 00:09:43;;;;;;;;;;;;;;;20.97;60.05;99685.03;331793;29;2935;-78
2023/08/09 00:09:53;;;;;;;;;;;;;;;20.98;60.32;99689.38;334590;29;735;-78
2023/08/09 00:10:04;;;;;;;;;;;;;;;21.00;60.05;99689.25;333333;29;1713;-78
2023/08/09 00:10:14;;;;;;;;;;;;;;;21.00;60.08;99689.25;334282;29;1496;-78
2023/08/09 00:10:24;;;;;;;;;;;;;;;21.01;60.00;99688.28;331975;29;1197;-78
2023/08/09 00:10:34;;;;;;;;;;;;;;;21.01;60.27;99685.59;331700;29;1193;-78
2023/08/09 00:10:45;;;;;;;;;;;;;;;21.01;60.33;99690.94;331159;29;1570;-78
2023/08/09 00:10:55;;;;;;;;;;;;;;;21.00;60.35;99679.44;325853;30;1332;-78
2023/08/09 00:11:06;;;;;;;;;;;;;;;21.00;60.43;99684.75;330111;29;1987;-78
2023/08/09 00:11:16;;;;;;;;;;;;;;;21.00;60.33;99684.75;326159;29;2310;-78
2023/08/09 00:11:26;;;;;;;;;;;;;;;20.99;60.52;99687.56;324359;30;2383;-78
2023/08/09 00:11:36;;;;;;;;;;;;;;;20.99;60.36;99687.56;327155;30;852;-78
2023/08/09 00:11:49;;;;;;;;;;;;;;;20.98;60.60;99685.84;327059;30;2578;-78
2023/08/09 00:11:59;;;;;;;;;;;;;;;20.98;60.61;99691.19;324632;30;2656;-78
2023/08/09 00:12:09;;;;;;;;;;;;;;;20.97;60.69;99692.16;323341;30;1207;-78
2023/08/09 00:12:20;;;;;;;;;;;;;;;20.98;60.97;99691.19;323079;30;1818;-78
2023/08/09 00:12:31;;;;;;;;;;;;;;;20.98;60.74;99685.84;322420;30;1230;-78
2023/08/09 00:12:41;;;;;;;;;;;;;;;20.99;61.13;99692.88;322744;30;1895;-78
2023/08/09 00:12:52;;;;;;;;;;;;;;;20.99;60.81;99691.06;322308;30;833;-78
2023/08/09 00:13:02;;;;;;;;;;;;;;;21.00;60.74;99690.09;321882;30;2453;-78
2023/08/09 00:13:12;;;;;;;;;;;;;;;21.01;60.77;99685.59;320091;30;2874;-78
2023/08/09 00:13:24;;;;;;;;;;;;;;;21.00;60.85;99690.09;315362;31;1223;-78
2023/08/09 00:13:34;;;;;;;;;;;;;;;21.01;60.56;99690.94;312481;31;3164;-78
2023/08/09 00:13:45;;;;;;;;;;;;;;;21.00;61.01;99689.25;314334;30;3366;-78
2023/08/09 00:13:55;;;;;;;;;;;;;;;20.98;60.78;99694.69;319981;30;869;-78
2023/08/09 00:14:05;;;;;;;;;;;;;;;20.97;60.99;99689.50;316964;31;3187;-78
2023/08/09 00:14:15;;;;;;;;;;;;;;;20.95;60.75;99686.13;315308;31;2973;-78
2023/08/09 00:14:25;;;;;;;;;;;;;;;20.92;60.76;99685.41;313137;31;961;-78
2023/08/09 00:14:36;;;;;;;;;;;;;;;20.95;60.68;99691.44;310872;31;1241;-78
2023/08/09 00:14:46;;;;;;;;;;;;;;;20.95;61.07;99694.09;310615;31;2087;-78
2023/08/09 00:14:56;;;;;;;;;;;;;;;20.94;61.17;99690.59;308106;31;3196;-78
2023/08/09 00:15:07;;;;;;;;;;;;;;;20.94;61.15;99685.28;307586;32;1270;-78
2023/08/09 00:15:17;;;;;;;;;;;;;;;20.93;61.16;99687.09;305909;31;3879;-78
2023/08/09 00:15:28;;;;;;;;;;;;;;;20.92;60.77;99693.38;306807;31;4131;-78
2023/08/09 00:15:38;;;;;;;;;;;;;;;20.92;61.13;99693.38;306593;32;900;-78
2023/08/09 00:15:49;;;;;;;;;;;;;;;20.93;60.80;99689.75;307468;32;5093;-78
2023/08/09 00:15:59;;;;;;;;;;;;;;;20.92;60.84;99693.38;306038;32;4277;-78
2023/08/09 00:16:09;;;;;;;;;;;;;;;20.92;61.28;99703.19;306475;32;1002;-78
2023/08/09 00:16:20;;;;;;;;;;;;;;;20.92;61.18;99690.72;304232;32;4045;-78
2023/08/09 00:16:30;;;;;;;;;;;;;;;20.93;60.66;99688.91;301260;32;4123;-78
2023/08/09 00:16:40;;;;;;;;;;;;;;;20.95;60.95;99696.75;298276;33;1243;-78
2023/08/09 00:16:50;;;;;;;;;;;;;;;20.96;60.64;99693.97;299468;32;3485;-78
2023/08/09 00:17:01;;;;;;;;;;;;;;;20.98;60.75;99685.84;301438;32;3859;-78
2023/08/09 00:17:11;;;;;;;;;;;;;;;21.00;60.58;99689.25;301324;32;4294;-78
2023/08/09 00:17:21;;;;;;;;;;;;;;;20.99;60.96;99695.53;302402;32;908;-78
2023/08/09 00:17:31;;;;;;;;;;;;;;;20.99;60.52;99693.72;299600;32;6409;-78
2023/08/09 00:17:41;;;;;;;;;;;;;;;21.00;60.92;99698.06;298445;32;7348;-78
2023/08/09 00:17:52;;;;;;;;;;;;;;;21.02;60.94;99695.28;300254;32;858;-78
2023/08/09 00:18:02;;;;;;;;;;;;;;;21.03;60.44;99694.31;296561;33;6306;-78
2023/08/09 00:18:13;;;;;;;;;;;;;;;21.03;60.65;99692.50;294923;32;6877;-78
2023/08/09 00:18:24;;;;;;;;;;;;;;;21.04;60.17;99696.00;297379;33;2657;-78
2023/08/09 00:18:34;;;;;;;;;;;;;;;21.02;60.25;99693.47;292191;33;5542;-78
2023/08/09 00:18:44;;;;;;;;;;;;;;;21.02;60.60;99692.63;290487;33;5979;-78
2023/08/09 00:18:54;;;;;;;;;;;;;;;21.02;60.41;99698.78;290404;34;841;-78
2023/08/09 00:19:05;;;;;;;;;;;;;;;21.01;60.49;99696.25;288740;33;4792;-78
2023/08/09 00:19:15;;;;;;;;;;;;;;;21.00;60.22;99694.56;288162;34;6302;-78
2023/08/09 00:19:25;;;;;;;;;;;;;;;20.99;60.70;99692.88;290322;34;825;-78
2023/08/09 00:19:35;;;;;;;;;;;;;;;20.98;60.73;99696.50;287311;34;7117;-78
2023/08/09 00:19:46;;;;;;;;;;;;;;;20.97;60.50;99686.84;284453;34;8532;-78
2023/08/09 00:19:56;;;;;;;;;;;;;;;20.97;60.91;99697.47;281677;34;10428;-78
2023/08/09 00:20:11;;;;;;;;;;;;;;;20.97;60.52;99694.81;281094;35;1339;-79
2023/08/09 00:20:22;;;;;;;;;;;;;;;20.96;60.46;99698.44;279289;35;890;-78
2023/08/09 00:20:32;;;;;;;;;;;;;;;20.96;60.75;99690.47;277861;35;9465;-79
2023/08/09 00:20:43;;;;;;;;;;;;;;;20.94;60.85;99690.59;276307;35;8039;-79
2023/08/09 00:20:53;;;;;;;;;;;;;;;20.95;60.51;99696.75;277571;35;1365;-79
2023/08/09 00:22:33;;;;;;;;;;;;;;;20.90;60.77;99687.34;2502040;27;19933;-78
2023/08/09 00:22:43;;;;;;;;;;;;;;;20.89;60.81;99692.78;354767;27;795;-78
2023/08/09 00:22:53;;;;;;;;;;;;;;;20.89;60.80;99698.94;353254;28;1226;-77
2023/08/09 00:23:04;;;;;;;;;;;;;;;20.88;60.57;99691.94;350527;28;1253;-77
2023/08/09 00:23:14;;;;;;;;;;;;;;;20.86;60.71;99688.56;350317;28;1330;-78
2023/08/09 00:23:24;;;;;;;;;;;;;;;20.84;60.88;99693.16;350464;28;1052;-78
2023/08/09 00:23:34;;;;;;;;;;;;;;;20.85;60.85;99691.34;349171;28;1339;-78
2023/08/09 00:23:45;;;;;;;;;;;;;;;20.84;60.88;99695.81;347790;28;1267;-78
2023/08/09 00:23:55;;;;;;;;;;;;;;;20.83;61.12;99694.13;349118;28;982;-78
2023/08/09 00:24:05;;;;;;;;;;;;;;;20.82;60.92;99694.25;351846;28;1282;-79
2023/08/09 00:24:16;;;;;;;;;;;;;;;20.84;61.23;99689.66;351520;28;1287;-78
2023/08/09 00:24:26;;;;;;;;;;;;;;;20.83;61.16;99683.47;350420;28;1219;-78
2023/08/09 00:24:36;;;;;;;;;;;;;;;20.85;60.86;99691.34;350535;28;1205;-78
2023/08/09 00:24:47;;;;;;;;;;;;;;;20.84;61.38;99694.97;351991;28;863;-78
2023/08/09 00:24:57;;;;;;;;;;;;;;;20.84;61.19;99690.50;349214;28;1204;-79
2023/08/09 00:25:08;;;;;;;;;;;;;;;20.83;60.85;99699.44;347822;28;852;-77
2023/08/09 00:25:18;;;;;;;;;;;;;;;20.83;61.27;99686.16;345064;28;1081;-77
2023/08/09 00:25:28;;;;;;;;;;;;;;;20.82;61.44;99692.44;346457;28;782;-78
2023/08/09 00:25:38;;;;;;;;;;;;;;;20.81;61.35;99693.41;347735;28;798;-78
2023/08/09 00:25:49;;;;;;;;;;;;;;;20.74;61.28;99694.91;347873;28;813;-78
2023/08/09 00:26:00;;;;;;;;;;;;;;;20.75;61.61;99693.94;347823;28;848;-78
2023/08/09 00:26:10;;;;;;;;;;;;;;;20.76;61.08;99695.63;346630;28;1430;-77
2023/08/09 00:26:20;;;;;;;;;;;;;;;20.77;61.11;99694.66;346418;28;976;-77
2023/08/09 00:26:31;;;;;;;;;;;;;;;20.78;61.05;99693.69;348835;28;1469;-77
2023/08/09 00:26:41;;;;;;;;;;;;;;;20.77;61.12;99689.34;350457;28;1260;-77
2023/08/09 00:26:51;;;;;;;;;;;;;;;20.80;61.18;99694.38;349820;28;1189;-77
2023/08/09 00:27:01;;;;;;;;;;;;;;;20.79;61.43;99692.72;349081;28;1079;-77
2023/08/09 00:27:13;;;;;;;;;;;;;;;20.77;61.45;99689.34;349017;28;1220;-79
2023/08/09 00:27:23;;;;;;;;;;;;;;;20.79;61.39;99691.88;349017;28;1297;-79
2023/08/09 00:27:33;;;;;;;;;;;;;;;20.77;61.22;99694.66;348752;28;2792;-77
2023/08/09 00:27:44;;;;;;;;;;;;;;;20.80;61.45;99698.84;346599;28;4196;-78
2023/08/09 00:27:54;;;;;;;;;;;;;;;20.80;61.49;99696.19;349265;28;2452;-78
2023/08/09 00:28:04;;;;;;;;;;;;;;;20.80;61.49;99693.53;349182;28;792;-78
2023/08/09 00:28:15;;;;;;;;;;;;;;;20.78;61.04;99692.84;346854;28;2841;-78
2023/08/09 00:28:25;;;;;;;;;;;;;;;20.78;61.70;99691.03;345968;28;985;-78
2023/08/09 00:28:35;;;;;;;;;;;;;;;20.76;61.38;99692.13;344934;28;1193;-78
2023/08/09 00:28:46;;;;;;;;;;;;;;;20.75;61.39;99690.44;344797;28;1321;-78
2023/08/09 00:28:56;;;;;;;;;;;;;;;20.76;61.44;99694.78;346274;28;1247;-78
2023/08/09 00:29:07;;;;;;;;;;;;;;;20.78;61.77;99701.66;344971;28;1201;-78
2023/08/09 00:29:17;;;;;;;;;;;;;;;20.79;61.19;99690.06;341119;29;1317;-78
2023/08/09 00:29:27;;;;;;;;;;;;;;;20.81;61.30;99698.72;342372;28;980;-78
2023/08/09 00:29:38;;;;;;;;;;;;;;;20.80;61.65;99693.53;340126;28;2680;-78
2023/08/09 00:29:48;;;;;;;;;;;;;;;20.78;61.43;99690.19;345087;28;1066;-78
2023/08/09 00:29:59;;;;;;;;;;;;;;;20.79;61.43;99697.19;344812;28;1406;-78
2023/08/09 00:30:12;;;;;;;;;;;;;;;20.78;61.58;99696.34;340986;28;1308;-78
2023/08/09 00:30:22;;;;;;;;;;;;;;;20.77;61.70;99693.81;342183;28;1218;-78
2023/08/09 00:30:32;;;;;;;;;;;;;;;20.77;61.60;99694.66;345102;28;1075;-78
2023/08/09 00:30:43;;;;;;;;;;;;;;;20.77;61.56;99694.66;342233;28;1265;-78
2023/08/09 00:30:54;;;;;;;;;;;;;;;20.78;61.61;99692.84;340717;29;1688;-78
2023/08/09 00:31:05;;;;;;;;;;;;;;;20.77;61.89;99694.66;339719;29;783;-78
2023/08/09 00:31:17;;;;;;;;;;;;;;;20.77;61.81;99694.66;341819;28;1483;-78
2023/08/09 00:31:27;;;;;;;;;;;;;;;20.75;61.99;99696.59;338193;29;1322;-78
2023/08/09 00:31:38;;;;;;;;;;;;;;;20.76;61.89;99692.97;338570;29;1164;-78
2023/08/09 00:31:48;;;;;;;;;;;;;;;20.77;61.61;99694.66;339799;29;778;-78
2023/08/09 00:31:58;;;;;;;;;;;;;;;20.78;61.95;99701.66;337517;29;1520;-78
2023/08/09 00:32:08;;;;;;;;;;;;;;;20.77;61.81;99699.97;339443;29;1477;-78
2023/08/09 00:32:19;;;;;;;;;;;;;;;20.79;61.92;99698.03;338509;29;1374;-78
2023/08/09 00:32:29;;;;;;;;;;;;;;;20.78;61.88;99699.00;335025;29;1314;-78
2023/08/09 00:32:39;;;;;;;;;;;;;;;20.78;61.67;99696.34;334304;29;1720;-78
2023/08/09 00:32:50;;;;;;;;;;;;;;;20.79;61.69;99697.19;333269;29;845;-77
2023/08/09 00:33:00;;;;;;;;;;;;;;;20.77;62.29;99699.13;333784;29;1968;-77
2023/08/09 00:33:11;;;;;;;;;;;;;;;20.73;62.02;99703.84;333655;29;1951;-77
2023/08/09 00:33:21;;;;;;;;;;;;;;;20.72;62.34;99698.66;333735;29;1154;-77
2023/08/09 00:33:31;;;;;;;;;;;;;;;20.73;62.33;99695.88;330706;29;2101;-77
2023/08/09 00:33:41;;;;;;;;;;;;;;;20.71;62.06;99700.47;330514;29;1537;-77
2023/08/09 00:33:52;;;;;;;;;;;;;;;20.70;62.53;99698.78;330787;29;1227;-77
2023/08/09 00:34:02;;;;;;;;;;;;;;;20.68;62.60;99695.41;328266;30;1273;-77
2023/08/09 00:34:13;;;;;;;;;;;;;;;20.66;62.67;99697.34;328786;30;1713;-77
2023/08/09 00:34:23;;;;;;;;;;;;;;;20.65;62.56;99703.63;329954;29;1785;-77
2023/08/09 00:34:33;;;;;;;;;;;;;;;20.66;62.55;99700.00;327141;30;1234;-77
2023/08/09 00:34:43;;;;;;;;;;;;;;;20.66;62.66;99702.66;325151;30;1948;-77
2023/08/09 00:34:54;;;;;;;;;;;;;;;20.67;62.66;99693.72;324888;30;2353;-77
2023/08/09 00:35:04;;;;;;;;;;;;;;;20.67;62.71;99693.72;328760;30;1122;-77
2023/08/09 00:35:15;;;;;;;;;;;;;;;20.68;62.49;99700.72;327202;30;2652;-78
2023/08/09 00:35:25;;;;;;;;;;;;;;;20.68;62.42;99700.72;327056;30;2795;-78
2023/08/09 00:35:35;;;;;;;;;;;;;;;20.66;62.87;99697.34;328388;30;884;-78
2023/08/09 00:35:45;;;;;;;;;;;;;;;20.67;62.44;99701.69;326488;30;2773;-78
2023/08/09 00:35:55;;;;;;;;;;;;;;;20.68;62.47;99698.06;326592;30;1510;-78
2023/08/09 00:36:06;;;;;;;;;;;;;;;20.69;62.74;99699.75;325964;30;970;-78
2023/08/09 00:36:16;;;;;;;;;;;;;;;20.70;62.68;99696.13;325590;30;1482;-78
2023/08/09 00:36:27;;;;;;;;;;;;;;;20.72;62.80;99698.66;323579;30;1988;-78
2023/08/09 00:36:37;;;;;;;;;;;;;;;20.72;62.42;99701.31;324388;30;2029;-78
2023/08/09 00:36:47;;;;;;;;;;;;;;;20.72;62.64;99702.16;322204;30;1364;-78
2023/08/09 00:36:58;;;;;;;;;;;;;;;20.72;62.74;99696.00;325100;30;2795;-79
2023/08/09 00:37:08;;;;;;;;;;;;;;;20.71;62.45;99700.47;325007;30;3388;-79
2023/08/09 00:37:18;;;;;;;;;;;;;;;20.72;62.42;99694.19;321170;30;1229;-78
2023/08/09 00:37:29;;;;;;;;;;;;;;;20.73;62.65;99703.00;327405;29;3365;-78
2023/08/09 00:37:39;;;;;;;;;;;;;;;20.72;62.50;99696.84;325130;30;3667;-78
2023/08/09 00:37:49;;;;;;;;;;;;;;;20.73;62.58;99695.88;321068;30;892;-78
2023/08/09 00:38:00;;;;;;;;;;;;;;;20.75;62.71;99701.06;320509;30;3255;-78
2023/08/09 00:38:10;;;;;;;;;;;;;;;20.73;62.51;99697.69;320603;30;2172;-78
2023/08/09 00:38:20;;;;;;;;;;;;;;;20.73;62.61;99693.22;322097;30;1043;-78
2023/08/09 00:38:31;;;;;;;;;;;;;;;20.74;62.80;99694.06;324016;30;2062;-78
2023/08/09 00:38:41;;;;;;;;;;;;;;;20.74;62.81;99697.56;323997;30;2667;-78
2023/08/09 00:38:52;;;;;;;;;;;;;;;20.74;62.68;99697.56;323410;30;1213;-78
2023/08/09 00:39:05;;;;;;;;;;;;;;;20.74;62.80;99694.91;316582;31;790;-78
2023/08/09 00:39:16;;;;;;;;;;;;;;;20.74;63.05;99700.22;314352;31;3750;-78
2023/08/09 00:39:26;;;;;;;;;;;;;;;20.74;62.55;99700.22;316133;30;4506;-78
2023/08/09 00:39:36;;;;;;;;;;;;;;;20.74;62.69;99694.06;317608;31;1335;-78
2023/08/09 00:39:47;;;;;;;;;;;;;;;20.73;62.81;99695.03;318002;30;4458;-78
2023/08/09 00:39:57;;;;;;;;;;;;;;;20.72;63.05;99696.84;318789;30;4478;-78
2023/08/09 00:40:07;;;;;;;;;;;;;;;20.72;62.47;99696.84;317149;31;4301;-78
2023/08/09 00:40:18;;;;;;;;;;;;;;;20.73;62.78;99693.22;315342;31;1244;-78
2023/08/09 00:40:28;;;;;;;;;;;;;;;20.72;62.61;99696.84;313659;31;3217;-78
2023/08/09 00:40:38;;;;;;;;;;;;;;;20.71;62.77;99689.84;309145;31;3003;-78
2023/08/09 00:40:48;;;;;;;;;;;;;;;20.69;62.92;99690.94;309830;31;804;-78
2023/08/09 00:40:58;;;;;;;;;;;;;;;20.69;62.82;99689.13;311190;31;3893;-78
2023/08/09 00:41:09;;;;;;;;;;;;;;;20.68;62.92;99695.41;311967;31;4688;-78
2023/08/09 00:41:19;;;;;;;;;;;;;;;20.69;62.94;99691.78;311962;31;1253;-78
2023/08/09 00:41:29;;;;;;;;;;;;;;;20.69;62.98;99694.44;308876;31;4999;-78
2023/08/09 00:41:39;;;;;;;;;;;;;;;20.69;62.97;99691.78;308402;31;5991;-78
2023/08/09 00:41:50;;;;;;;;;;;;;;;20.70;62.87;99693.47;308310;32;1388;-78
2023/08/09 00:42:00;;;;;;;;;;;;;;;20.71;62.65;99692.50;307965;32;6020;-78
2023/08/09 00:42:10;;;;;;;;;;;;;;;20.73;62.50;99685.25;304274;32;5988;-78
2023/08/09 00:42:21;;;;;;;;;;;;;;;20.71;62.57;99684.53;303469;32;1450;-78
2023/08/09 00:42:31;;;;;;;;;;;;;;;20.72;62.65;99682.69;305749;32;5839;-79
2023/08/09 00:42:41;;;;;;;;;;;;;;;20.71;62.97;99684.53;303302;32;4332;-77
2023/08/09 00:42:51;;;;;;;;;;;;;;;20.73;62.97;99692.38;303551;32;755;-79
2023/08/09 00:43:02;;;;;;;;;;;;;;;20.73;63.14;99687.06;301419;32;4699;-79
2023/08/09 00:43:12;;;;;;;;;;;;;;;20.74;62.53;99688.75;300440;32;5720;-77
2023/08/09 00:43:22;;;;;;;;;;;;;;;20.71;62.56;99695.16;298774;32;6761;-77
2023/08/09 00:43:33;;;;;;;;;;;;;;;20.69;62.84;99690.94;294389;33;1351;-77
2023/08/09 00:43:43;;;;;;;;;;;;;;;20.68;63.12;99684.75;291465;33;7600;-78
2023/08/09 00:43:53;;;;;;;;;;;;;;;20.66;63.05;99686.69;289453;33;8174;-78
2023/08/09 00:44:03;;;;;;;;;;;;;;;20.63;62.86;99692.28;292856;33;1040;-78
2023/08/09 00:44:13;;;;;;;;;;;;;;;20.60;62.84;99684.53;289136;33;8542;-77
2023/08/09 00:44:24;;;;;;;;;;;;;;;20.60;63.17;99684.53;288253;34;7869;-77
2023/08/09 00:44:34;;;;;;;;;;;;;;;20.59;63.16;99690.81;288491;34;1483;-79
2023/08/09 00:44:44;;;;;;;;;;;;;;;20.58;63.44;99684.66;280235;34;8766;-77
2023/08/09 00:44:54;;;;;;;;;;;;;;;20.59;62.86;99688.16;279755;34;6610;-77
2023/08/09 00:45:05;;;;;;;;;;;;;;;20.62;63.21;99689.72;282605;35;1425;-77
2023/08/09 00:46:45;;;;;;;;;;;;;;;20.66;62.74;99693.84;2485804;27;19927;-78
2023/08/09 00:46:55;;;;;;;;;;;;;;;20.65;62.63;99685.00;355067;27;866;-77
2023/08/09 00:47:06;;;;;;;;;;;;;;;20.65;62.98;99693.00;351930;28;1379;-77
2023/08/09 00:47:16;;;;;;;;;;;;;;;20.64;62.84;99683.31;348825;28;1258;-77
2023/08/09 00:47:27;;;;;;;;;;;;;;;20.65;62.79;99689.50;348544;28;1197;-77
2023/08/09 00:47:37;;;;;;;;;;;;;;;20.65;62.73;99686.81;347756;28;1363;-77
2023/08/09 00:47:47;;;;;;;;;;;;;;;20.66;62.78;99681.38;349190;28;1014;-77
2023/08/09 00:47:58;;;;;;;;;;;;;;;20.65;62.87;99685.00;350398;28;1328;-77
2023/08/09 00:48:09;;;;;;;;;;;;;;;20.66;62.88;99685.84;350396;28;1550;-77
2023/08/09 00:48:19;;;;;;;;;;;;;;;20.66;63.04;99685.84;347784;28;1258;-77
2023/08/09 00:48:29;;;;;;;;;;;;;;;20.66;63.26;99685.84;347341;28;1143;-77
2023/08/09 00:48:40;;;;;;;;;;;;;;;20.67;63.18;99682.22;346326;28;939;-77
2023/08/09 00:48:50;;;;;;;;;;;;;;;20.66;63.14;99689.38;345051;28;848;-77
2023/08/09 00:49:00;;;;;;;;;;;;;;;20.66;62.89;99680.53;343529;28;1309;-77
2023/08/09 00:49:10;;;;;;;;;;;;;;;20.66;63.07;99685.84;344763;28;1214;-77
2023/08/09 00:49:21;;;;;;;;;;;;;;;20.64;62.89;99691.31;347702;28;796;-77
2023/08/09 00:49:31;;;;;;;;;;;;;;;20.64;63.05;99680.66;346444;28;1535;-77
2023/08/09 00:49:41;;;;;;;;;;;;;;;20.63;63.14;99686.94;346484;28;1344;-79
2023/08/09 00:49:52;;;;;;;;;;;;;;;20.62;62.97;99689.72;349121;28;1245;-78
2023/08/09 00:50:02;;;;;;;;;;;;;;;20.61;63.56;99680.06;349335;28;898;-78
2023/08/09 00:50:12;;;;;;;;;;;;;;;20.60;63.52;99684.53;348739;28;1261;-78
2023/08/09 00:50:23;;;;;;;;;;;;;;;20.60;63.42;99687.19;348879;28;1385;-78
2023/08/09 00:50:33;;;;;;;;;;;;;;;20.62;63.42;99687.91;347725;28;1246;-78
2023/08/09 00:50:43;;;;;;;;;;;;;;;20.62;63.22;99687.91;349100;28;1295;-77
2023/08/09 00:50:53;;;;;;;;;;;;;;;20.62;63.40;99685.25;346338;28;1288;-78
2023/08/09 00:51:03;;;;;;;;;;;;;;;20.51;63.47;99685.28;347621;28;1240;-78
2023/08/09 00:51:14;;;;;;;;;;;;;;;20.44;63.58;99687.59;347383;28;1306;-78
2023/08/09 00:51:24;;;;;;;;;;;;;;;20.44;63.54;99689.41;345035;28;893;-78
2023/08/09 00:51:34;;;;;;;;;;;;;;;20.43;63.29;99685.03;346361;28;1225;-77
2023/08/09 00:51:44;;;;;;;;;;;;;;;20.43;63.30;99685.91;344918;28;1219;-78
2023/08/09 00:51:55;;;;;;;;;;;;;;;20.45;63.52;99677.78;343162;28;949;-78
2023/08/09 00:52:05;;;;;;;;;;;;;;;20.47;63.48;99681.19;341835;28;2504;-77
2023/08/09 00:52:15;;;;;;;;;;;;;;;20.48;63.27;99686.38;340113;28;1203;-78
2023/08/09 00:52:26;;;;;;;;;;;;;;;20.50;63.50;99689.75;342837;28;2717;-78
2023/08/09 00:52:36;;;;;;;;;;;;;;;20.51;63.16;99683.47;344366;28;1201;-78
2023/08/09 00:52:46;;;;;;;;;;;;;;;20.53;63.26;99684.19;343681;28;1317;-78
2023/08/09 00:52:56;;;;;;;;;;;;;;;20.55;63.21;99689.38;340935;28;1074;-78
2023/08/09 00:53:07;;;;;;;;;;;;;;;20.57;63.55;99687.44;342245;28;1218;-78
2023/08/09 00:53:17;;;;;;;;;;;;;;;20.57;62.94;99682.13;345106;28;1202;-78
2023/08/09 00:53:27;;;;;;;;;;;;;;;20.57;62.97;99687.44;345038;28;1152;-78
2023/08/09 00:53:37;;;;;;;;;;;;;;;20.59;63.08;99691.66;344866;28;1206;-78
2023/08/09 00:53:48;;;;;;;;;;;;;;;20.59;63.07;99686.34;343734;28;885;-78
2023/08/09 00:53:58;;;;;;;;;;;;;;;20.60;63.14;99687.19;343648;28;895;-78
2023/08/09 00:54:08;;;;;;;;;;;;;;;20.60;63.37;99695.19;343589;28;865;-78
2023/08/09 00:54:18;;;;;;;;;;;;;;;20.56;63.72;99683.94;339532;29;1325;-78
2023/08/09 00:54:29;;;;;;;;;;;;;;;20.55;63.32;99689.38;339652;29;948;-78
2023/08/09 00:54:39;;;;;;;;;;;;;;;20.56;63.39;99691.06;340699;28;1215;-78
2023/08/09 00:54:49;;;;;;;;;;;;;;;20.57;63.42;99692.75;342193;28;1404;-78
2023/08/09 00:55:00;;;;;;;;;;;;;;;20.57;63.13;99687.44;345082;28;812;-78
2023/08/09 00:55:10;;;;;;;;;;;;;;;20.58;63.44;99694.47;343198;28;1311;-78
2023/08/09 00:55:21;;;;;;;;;;;;;;;20.60;63.37;99692.50;343491;28;1681;-78
2023/08/09 00:55:31;;;;;;;;;;;;;;;20.60;63.56;99692.50;345067;28;1223;-78
2023/08/09 00:55:41;;;;;;;;;;;;;;;20.61;63.81;99688.88;343754;28;1485;-78
2023/08/09 00:55:51;;;;;;;;;;;;;;;20.61;63.28;99691.56;343748;28;1336;-78
2023/08/09 00:56:02;;;;;;;;;;;;;;;20.60;63.62;99689.84;343532;28;1330;-78
2023/08/09 00:56:12;;;;;;;;;;;;;;;20.61;63.53;99688.03;343711;28;843;-78
2023/08/09 00:56:23;;;;;;;;;;;;;;;20.60;63.60;99692.50;344019;28;955;-78
2023/08/09 00:56:33;;;;;;;;;;;;;;;20.61;63.66;99688.03;342293;28;1448;-78
2023/08/09 00:56:44;;;;;;;;;;;;;;;20.58;63.37;99694.47;342274;28;1470;-78
2023/08/09 00:56:54;;;;;;;;;;;;;;;20.58;63.39;99694.47;341874;28;1786;-78
2023/08/09 00:57:05;;;;;;;;;;;;;;;20.58;62.97;99689.13;341146;28;1917;-78
2023/08/09 00:57:15;;;;;;;;;;;;;;;20.57;62.94;99692.75;344627;28;1193;-78
2023/08/09 00:57:25;;;;;;;;;;;;;;;20.53;62.85;99688.66;342417;28;2099;-78
2023/08/09 00:57:36;;;;;;;;;;;;;;;20.53;63.31;99686.00;339566;29;2032;-78
2023/08/09 00:57:46;;;;;;;;;;;;;;;20.51;63.08;99688.78;339654;29;1571;-78
2023/08/09 00:57:56;;;;;;;;;;;;;;;20.50;62.84;99688.91;340656;29;1526;-78
2023/08/09 00:58:06;;;;;;;;;;;;;;;20.50;63.13;99683.59;339685;29;833;-79
2023/08/09 00:58:17;;;;;;;;;;;;;;;20.49;63.17;99695.19;340871;29;1204;-79
2023/08/09 00:58:27;;;;;;;;;;;;;;;20.48;63.13;99688.19;341919;28;1249;-79
2023/08/09 00:58:37;;;;;;;;;;;;;;;20.48;63.11;99690.84;341766;28;1652;-78